createdAt,value
2022-08-14T00:00:16.544Z,4.40
2022-08-14T00:01:37.413Z,4.85
2022-08-14T00:02:09.169Z,5.20
2022-08-14T00:02:40.720Z,4.68
2022-08-14T00:03:29.355Z,5.05
2022-08-14T00:04:01.287Z,4.90
2022-08-14T00:04:52.905Z,4.60
2022-08-14T00:05:24.264Z,4.63
2022-08-14T00:05:58.419Z,5.03
2022-08-14T00:06:31.755Z,5.18
2022-08-14T00:07:06.743Z,5.30
2022-08-14T00:07:41.951Z,4.43
2022-08-14T00:08:14.283Z,5.15
2022-08-14T00:08:45.924Z,5.20
2022-08-14T00:09:17.594Z,5.20
2022-08-14T00:09:56.395Z,4.97
2022-08-14T00:10:49.879Z,4.45
2022-08-14T00:11:23.687Z,4.30
2022-08-14T00:11:56.307Z,5.05
2022-08-14T00:12:33.575Z,4.28
2022-08-14T00:13:13.571Z,4.60
2022-08-14T00:13:52.962Z,5.13
2022-08-14T00:14:26.676Z,5.07
2022-08-14T00:14:58.059Z,4.32
2022-08-14T00:15:43.520Z,5.28
2022-08-14T00:16:41.306Z,4.97
2022-08-14T00:17:07.354Z,4.68
2022-08-14T00:17:48.437Z,4.67
2022-08-14T00:19:06.328Z,5.53
2022-08-14T00:19:37.841Z,5.60
2022-08-14T00:20:09.859Z,4.50
2022-08-14T00:20:43.309Z,5.63
2022-08-14T00:21:15.192Z,5.05
2022-08-14T00:21:50.378Z,5.47
2022-08-14T00:22:56.629Z,5.38
2022-08-14T00:23:16.611Z,4.97
2022-08-14T00:23:53.829Z,4.50
2022-08-14T00:24:28.946Z,5.40
2022-08-14T00:25:02.428Z,5.68
2022-08-14T00:25:42.504Z,5.57
2022-08-14T00:26:21.739Z,6.10
2022-08-14T00:26:54.878Z,5.60
2022-08-14T00:27:26.475Z,5.78
2022-08-14T00:28:02.773Z,5.50
2022-08-14T00:28:36.792Z,5.63
2022-08-14T00:29:08.511Z,5.63
2022-08-14T00:29:42.834Z,5.40
2022-08-14T00:31:06.751Z,5.60
2022-08-14T00:31:44.148Z,5.15
2022-08-14T00:32:50.651Z,5.63
2022-08-14T00:33:15.325Z,5.20
2022-08-14T00:33:51.580Z,4.68
2022-08-14T00:34:37.555Z,4.95
2022-08-14T00:35:16.399Z,5.13
2022-08-14T00:36:35.753Z,6.13
2022-08-14T00:36:48.699Z,5.38
2022-08-14T00:37:21.050Z,5.73
2022-08-14T00:37:52.559Z,5.20
2022-08-14T00:38:24.135Z,5.00
2022-08-14T00:38:55.647Z,5.88
2022-08-14T00:39:27.366Z,5.90
2022-08-14T00:40:00.078Z,5.82
2022-08-14T00:40:33.428Z,5.22
2022-08-14T00:41:10.973Z,5.43
2022-08-14T00:41:42.955Z,6.07
2022-08-14T00:42:52.678Z,6.35
2022-08-14T00:43:06.266Z,5.43
2022-08-14T00:43:38.219Z,6.10
2022-08-14T00:44:26.734Z,5.05
2022-08-14T00:45:07.298Z,5.63
2022-08-14T00:46:33.290Z,5.35
2022-08-14T00:47:09.094Z,4.82
2022-08-14T00:47:44.919Z,5.90
2022-08-14T00:48:33.914Z,6.05
2022-08-14T00:49:11.571Z,5.43
2022-08-14T00:49:46.144Z,5.30
2022-08-14T00:50:22.030Z,5.47
2022-08-14T00:51:12.149Z,5.70
2022-08-14T00:51:45.427Z,5.53
2022-08-14T00:52:18.026Z,5.88
2022-08-14T00:53:43.012Z,5.70
2022-08-14T00:54:21.462Z,6.10
2022-08-14T00:54:58.228Z,5.68
2022-08-14T00:55:30.847Z,5.82
2022-08-14T00:56:07.058Z,5.47
2022-08-14T00:56:40.038Z,6.30
2022-08-14T00:57:11.409Z,5.78
2022-08-14T00:57:43.715Z,5.53
2022-08-14T00:58:33.385Z,6.88
2022-08-14T00:59:05.504Z,5.40
2022-08-14T00:59:37.256Z,5.68
2022-08-14T01:00:34.156Z,5.53
2022-08-14T01:01:12.674Z,6.13
2022-08-14T01:01:45.187Z,6.13
2022-08-14T01:02:24.701Z,5.43
2022-08-14T01:02:59.748Z,5.43
2022-08-14T01:03:31.906Z,5.63
2022-08-14T01:04:05.749Z,5.60
2022-08-14T01:04:53.479Z,5.63
2022-08-14T01:05:26.361Z,5.50
2022-08-14T01:06:18.677Z,6.15
2022-08-14T01:06:51.967Z,6.15
2022-08-14T01:07:29.723Z,5.75
2022-08-14T01:08:52.169Z,5.93
2022-08-14T01:09:03.503Z,6.37
2022-08-14T01:09:36.480Z,5.70
2022-08-14T01:10:08.167Z,6.47
2022-08-14T01:10:50.944Z,6.60
2022-08-14T01:11:22.372Z,6.47
2022-08-14T01:12:02.798Z,5.63
2022-08-14T01:12:40.564Z,5.85
2022-08-14T01:13:17.058Z,6.50
2022-08-14T01:14:01.291Z,6.18
2022-08-14T01:14:32.971Z,5.70
2022-08-14T01:15:09.712Z,6.20
2022-08-14T01:15:58.209Z,6.40
2022-08-14T01:17:23.976Z,6.68
2022-08-14T01:18:14.128Z,6.78
2022-08-14T01:19:03.810Z,5.95
2022-08-14T01:19:54.099Z,5.65
2022-08-14T01:20:43.919Z,5.45
2022-08-14T01:21:16.972Z,5.97
2022-08-14T01:21:53.093Z,5.95
2022-08-14T01:22:26.849Z,6.33
2022-08-14T01:22:58.327Z,7.00
2022-08-14T01:23:46.850Z,6.75
2022-08-14T01:25:10.952Z,6.47
2022-08-14T01:25:42.330Z,6.82
2022-08-14T01:26:34.645Z,6.15
2022-08-14T01:27:07.122Z,6.22
2022-08-14T01:27:53.971Z,5.88
2022-08-14T01:28:46.831Z,5.50
2022-08-14T01:29:36.430Z,6.30
2022-08-14T01:30:16.941Z,6.00
2022-08-14T01:30:57.557Z,6.60
2022-08-14T01:31:37.162Z,6.60
2022-08-14T01:32:10.521Z,6.00
2022-08-14T01:32:45.263Z,6.85
2022-08-14T01:33:29.109Z,5.80
2022-08-14T01:35:20.487Z,6.63
2022-08-14T01:35:20.919Z,6.25
2022-08-14T01:36:20.820Z,6.20
2022-08-14T01:36:54.201Z,6.03
2022-08-14T01:37:25.560Z,6.57
2022-08-14T01:37:57.950Z,5.20
2022-08-14T01:38:34.371Z,5.75
2022-08-14T01:39:15.168Z,6.47
2022-08-14T01:39:46.620Z,6.55
2022-08-14T01:40:42.075Z,5.75
2022-08-14T01:41:16.087Z,6.65
2022-08-14T01:41:52.899Z,6.00
2022-08-14T01:42:31.272Z,5.65
2022-08-14T01:43:15.534Z,7.07
2022-08-14T01:44:02.154Z,6.18
2022-08-14T01:44:34.487Z,6.70
2022-08-14T01:45:12.601Z,6.05
2022-08-14T01:46:05.685Z,6.72
2022-08-14T01:46:40.764Z,6.88
2022-08-14T01:47:21.560Z,6.25
2022-08-14T01:48:02.986Z,6.78
2022-08-14T01:48:37.234Z,7.03
2022-08-14T01:49:11.488Z,6.80
2022-08-14T01:49:46.170Z,6.63
2022-08-14T01:50:30.780Z,6.20
2022-08-14T01:51:18.349Z,6.55
2022-08-14T01:51:56.848Z,6.85
2022-08-14T01:52:59.599Z,7.65
2022-08-14T01:53:31.513Z,6.70
2022-08-14T01:55:14.052Z,7.00
2022-08-14T01:55:45.393Z,7.00
2022-08-14T01:56:18.707Z,6.25
2022-08-14T01:57:13.403Z,6.50
2022-08-14T01:58:00.166Z,6.72
2022-08-14T01:58:33.827Z,5.93
2022-08-14T01:59:20.109Z,7.28
2022-08-14T02:00:16.890Z,6.70
2022-08-14T02:00:55.114Z,6.72
2022-08-14T02:02:18.960Z,7.05
2022-08-14T02:03:09.495Z,7.22
2022-08-14T02:03:41.340Z,7.55
2022-08-14T02:04:54.573Z,6.27
2022-08-14T02:05:14.755Z,6.88
2022-08-14T02:05:47.703Z,7.40
2022-08-14T02:06:32.190Z,6.88
2022-08-14T02:07:07.357Z,7.50
2022-08-14T02:07:55.937Z,6.78
2022-08-14T02:08:52.630Z,7.32
2022-08-14T02:09:27.812Z,7.03
2022-08-14T02:10:06.439Z,7.38
2022-08-14T02:11:31.550Z,6.67
2022-08-14T02:12:03.863Z,6.45
2022-08-14T02:12:35.204Z,6.85
2022-08-14T02:13:11.071Z,7.22
2022-08-14T02:14:06.753Z,8.07
2022-08-14T02:14:40.236Z,7.53
2022-08-14T02:15:31.677Z,7.35
2022-08-14T02:16:21.870Z,6.78
2022-08-14T02:16:54.904Z,7.68
2022-08-14T02:17:27.401Z,7.13
2022-08-14T02:18:01.100Z,7.13
2022-08-14T02:18:33.351Z,7.07
2022-08-14T02:19:08.976Z,7.43
2022-08-14T02:19:40.342Z,7.85
2022-08-14T02:20:14.239Z,7.18
2022-08-14T02:21:43.350Z,6.35
2022-08-14T02:22:20.846Z,7.53
2022-08-14T02:23:04.316Z,6.82
2022-08-14T02:23:36.468Z,7.10
2022-08-14T02:24:40.073Z,7.93
2022-08-14T02:25:04.857Z,7.20
2022-08-14T02:25:36.751Z,7.18
2022-08-14T02:26:24.241Z,6.90
2022-08-14T02:28:23.109Z,7.38
2022-08-14T02:28:25.235Z,7.50
2022-08-14T02:30:00.379Z,7.82
2022-08-14T02:30:26.908Z,7.22
2022-08-14T02:31:02.815Z,8.00
2022-08-14T02:31:43.638Z,8.20
2022-08-14T02:33:07.515Z,8.85
2022-08-14T02:33:40.192Z,7.95
2022-08-14T02:34:22.397Z,8.48
2022-08-14T02:34:57.696Z,7.63
2022-08-14T02:35:32.578Z,7.03
2022-08-14T02:37:03.832Z,7.60
2022-08-14T02:37:05.130Z,7.57
2022-08-14T02:37:47.379Z,7.40
2022-08-14T02:38:30.546Z,7.23
2022-08-14T02:39:08.266Z,7.75
2022-08-14T02:39:42.640Z,7.53
2022-08-14T02:40:15.570Z,8.65
2022-08-14T02:40:48.742Z,7.90
2022-08-14T02:41:21.072Z,7.90
2022-08-14T02:41:57.957Z,6.93
2022-08-14T02:42:37.270Z,7.05
2022-08-14T02:43:09.008Z,7.82
2022-08-14T02:43:48.319Z,7.72
2022-08-14T02:45:38.615Z,7.45
2022-08-14T02:46:20.755Z,7.93
2022-08-14T02:47:01.403Z,7.60
2022-08-14T02:47:34.079Z,7.70
2022-08-14T02:49:04.066Z,6.53
2022-08-14T02:49:06.326Z,7.57
2022-08-14T02:49:38.031Z,7.90
2022-08-14T02:50:15.118Z,7.40
2022-08-14T02:50:51.639Z,7.72
2022-08-14T02:51:25.638Z,7.97
2022-08-14T02:52:03.143Z,7.85
2022-08-14T02:52:57.585Z,7.60
2022-08-14T02:53:35.057Z,7.57
2022-08-14T02:54:09.966Z,8.10
2022-08-14T02:54:45.769Z,8.50
2022-08-14T02:55:20.469Z,8.32
2022-08-14T02:55:52.482Z,7.68
2022-08-14T02:57:14.430Z,8.23
2022-08-14T02:57:39.496Z,7.63
2022-08-14T02:58:09.436Z,8.07
2022-08-14T02:58:43.834Z,7.72
2022-08-14T02:59:15.872Z,7.63
2022-08-14T02:59:49.963Z,7.68
2022-08-14T03:00:23.584Z,8.18
2022-08-14T03:00:57.410Z,7.57
2022-08-14T03:01:31.269Z,7.82
2022-08-14T03:02:48.994Z,7.50
2022-08-14T03:03:05.908Z,7.50
2022-08-14T03:03:39.879Z,8.13
2022-08-14T03:04:12.871Z,7.27
2022-08-14T03:04:44.231Z,8.05
2022-08-14T03:05:15.847Z,8.45
2022-08-14T03:05:47.177Z,8.02
2022-08-14T03:06:35.206Z,8.25
2022-08-14T03:07:17.070Z,8.07
2022-08-14T03:07:48.472Z,8.20
2022-08-14T03:08:31.638Z,7.72
2022-08-14T03:09:03.231Z,7.60
2022-08-14T03:10:24.181Z,7.97
2022-08-14T03:10:32.116Z,7.30
2022-08-14T03:11:09.254Z,7.85
2022-08-14T03:11:44.790Z,8.43
2022-08-14T03:12:17.906Z,8.40
2022-08-14T03:13:04.403Z,7.95
2022-08-14T03:13:47.296Z,7.90
2022-08-14T03:14:38.250Z,7.78
2022-08-14T03:15:13.935Z,8.38
2022-08-14T03:15:55.774Z,7.78
2022-08-14T03:16:49.263Z,8.65
2022-08-14T03:17:20.820Z,7.70
2022-08-14T03:17:58.364Z,8.00
2022-08-14T03:18:32.693Z,7.75
2022-08-14T03:19:07.128Z,8.63
2022-08-14T03:19:38.444Z,8.27
2022-08-14T03:20:11.887Z,8.63
2022-08-14T03:20:43.620Z,8.57
2022-08-14T03:21:20.391Z,8.15
2022-08-14T03:21:53.722Z,8.25
2022-08-14T03:22:27.781Z,7.93
2022-08-14T03:23:02.823Z,8.90
2022-08-14T03:23:38.786Z,8.65
2022-08-14T03:24:16.441Z,8.50
2022-08-14T03:24:54.437Z,9.02
2022-08-14T03:25:25.868Z,8.65
2022-08-14T03:25:57.295Z,8.85
2022-08-14T03:26:30.415Z,8.57
2022-08-14T03:27:02.428Z,8.93
2022-08-14T03:27:35.496Z,8.55
2022-08-14T03:28:33.010Z,8.05
2022-08-14T03:29:07.456Z,8.30
2022-08-14T03:29:45.331Z,7.70
2022-08-14T03:31:08.374Z,8.75
2022-08-14T03:31:44.440Z,9.10
2022-08-14T03:32:17.794Z,8.90
2022-08-14T03:32:49.115Z,9.25
2022-08-14T03:33:23.739Z,9.07
2022-08-14T03:34:00.257Z,8.65
2022-08-14T03:34:47.747Z,8.25
2022-08-14T03:37:28.368Z,9.60
2022-08-14T03:37:38.963Z,8.82
2022-08-14T03:37:52.136Z,9.65
2022-08-14T03:39:15.530Z,8.88
2022-08-14T03:39:21.484Z,9.35
2022-08-14T03:39:54.026Z,9.10
2022-08-14T03:40:25.376Z,8.45
2022-08-14T03:40:56.735Z,8.68
2022-08-14T03:41:33.139Z,8.73
2022-08-14T03:42:05.719Z,8.32
2022-08-14T03:42:51.227Z,9.10
2022-08-14T03:43:22.646Z,9.25
2022-08-14T03:44:01.587Z,8.50
2022-08-14T03:45:26.480Z,8.98
2022-08-14T03:45:48.558Z,9.10
2022-08-14T03:46:38.703Z,8.82
2022-08-14T03:47:15.178Z,9.00
2022-08-14T03:47:58.574Z,9.98
2022-08-14T03:48:40.425Z,9.55
2022-08-14T03:49:13.444Z,9.10
2022-08-14T03:49:49.995Z,9.40
2022-08-14T03:50:27.657Z,9.07
2022-08-14T03:51:02.275Z,8.95
2022-08-14T03:51:34.287Z,9.02
2022-08-14T03:52:17.699Z,9.07
2022-08-14T03:52:57.786Z,9.93
2022-08-14T03:53:34.258Z,9.40
2022-08-14T03:54:08.287Z,9.93
2022-08-14T03:54:43.289Z,10.23
2022-08-14T03:55:14.676Z,9.23
2022-08-14T03:55:47.458Z,9.17
2022-08-14T03:56:45.071Z,9.10
2022-08-14T03:57:16.643Z,8.98
2022-08-14T03:57:48.539Z,9.32
2022-08-14T03:58:23.772Z,10.48
2022-08-14T03:59:17.717Z,9.93
2022-08-14T03:59:49.576Z,8.95
2022-08-14T04:00:40.445Z,9.20
2022-08-14T04:01:15.340Z,10.02
2022-08-14T04:01:58.142Z,8.95
2022-08-14T04:02:37.610Z,9.80
2022-08-14T04:03:24.221Z,9.48
2022-08-14T04:04:06.027Z,9.15
2022-08-14T04:04:39.407Z,9.85
2022-08-14T04:05:12.314Z,10.13
2022-08-14T04:05:48.964Z,9.02
2022-08-14T04:07:10.698Z,9.02
2022-08-14T04:07:49.852Z,10.10
2022-08-14T04:08:39.923Z,9.20
2022-08-14T04:09:13.239Z,9.77
2022-08-14T04:09:44.678Z,9.45
2022-08-14T04:10:17.093Z,10.07
2022-08-14T04:11:38.508Z,9.93
2022-08-14T04:12:13.313Z,9.50
2022-08-14T04:12:51.771Z,10.40
2022-08-14T04:13:23.967Z,10.25
2022-08-14T04:13:55.584Z,9.95
2022-08-14T04:14:27.487Z,9.80
2022-08-14T04:14:58.820Z,9.77
2022-08-14T04:15:30.375Z,10.35
2022-08-14T04:16:12.685Z,9.93
2022-08-14T04:16:46.223Z,10.77
2022-08-14T04:17:20.096Z,9.88
2022-08-14T04:18:10.057Z,9.55
2022-08-14T04:18:50.879Z,10.45
2022-08-14T04:19:23.735Z,9.88
2022-08-14T04:20:55.024Z,10.27
2022-08-14T04:21:29.373Z,9.07
2022-08-14T04:22:04.153Z,10.55
2022-08-14T04:22:36.672Z,10.07
2022-08-14T04:23:15.516Z,10.85
2022-08-14T04:23:58.171Z,10.50
2022-08-14T04:24:30.684Z,9.50
2022-08-14T04:25:10.487Z,9.77
2022-08-14T04:25:42.891Z,9.90
2022-08-14T04:26:27.171Z,10.35
2022-08-14T04:26:59.242Z,10.15
2022-08-14T04:27:30.647Z,9.97
2022-08-14T04:29:07.676Z,9.38
2022-08-14T04:29:14.719Z,10.07
2022-08-14T04:29:46.523Z,10.07
2022-08-14T04:30:24.981Z,10.65
2022-08-14T04:31:04.891Z,10.18
2022-08-14T04:32:57.600Z,10.45
2022-08-14T04:32:58.455Z,9.93
2022-08-14T04:33:20.630Z,9.88
2022-08-14T04:33:52.768Z,9.93
2022-08-14T04:34:27.989Z,9.90
2022-08-14T04:35:07.224Z,9.35
2022-08-14T04:35:57.875Z,10.70
2022-08-14T04:36:29.300Z,10.43
2022-08-14T04:37:24.531Z,11.20
2022-08-14T04:38:37.173Z,9.90
2022-08-14T04:39:28.695Z,10.13
2022-08-14T04:40:18.675Z,9.93
2022-08-14T04:41:08.462Z,9.32
2022-08-14T04:41:59.596Z,10.52
2022-08-14T04:42:51.563Z,10.60
2022-08-14T04:43:39.882Z,10.55
2022-08-14T04:44:13.578Z,11.32
2022-08-14T04:45:00.694Z,11.40
2022-08-14T04:45:40.422Z,10.95
2022-08-14T04:46:56.957Z,9.48
2022-08-14T04:47:30.840Z,10.18
2022-08-14T04:48:39.927Z,10.98
2022-08-14T04:49:07.921Z,10.23
2022-08-14T04:49:56.741Z,10.95
2022-08-14T04:50:37.791Z,9.93
2022-08-14T04:51:19.297Z,10.32
2022-08-14T04:51:55.949Z,10.40
2022-08-14T04:52:28.403Z,11.43
2022-08-14T04:52:59.763Z,10.93
2022-08-14T04:53:35.698Z,10.55
2022-08-14T04:54:07.475Z,11.52
2022-08-14T04:54:38.888Z,10.20
2022-08-14T04:55:11.031Z,10.10
2022-08-14T04:55:50.452Z,11.25
2022-08-14T04:56:31.303Z,11.00
2022-08-14T04:57:05.720Z,11.50
2022-08-14T04:57:39.110Z,10.98
2022-08-14T04:58:21.951Z,11.05
2022-08-14T04:59:10.005Z,12.25
2022-08-14T04:59:42.834Z,10.27
2022-08-14T05:00:16.322Z,10.32
2022-08-14T05:00:51.387Z,11.32
2022-08-14T05:01:25.947Z,11.40
2022-08-14T05:01:58.259Z,11.40
2022-08-14T05:02:29.723Z,11.10
2022-08-14T05:03:09.983Z,10.00
2022-08-14T05:03:42.080Z,10.77
2022-08-14T05:04:14.658Z,11.52
2022-08-14T05:04:57.223Z,12.25
2022-08-14T05:05:32.348Z,11.35
2022-08-14T05:06:37.870Z,10.52
2022-08-14T05:06:59.118Z,11.15
2022-08-14T05:07:46.984Z,11.18
2022-08-14T05:09:14.406Z,10.47
2022-08-14T05:09:48.034Z,10.63
2022-08-14T05:10:25.876Z,10.73
2022-08-14T05:11:06.668Z,11.20
2022-08-14T05:11:44.166Z,11.50
2022-08-14T05:13:10.769Z,10.45
2022-08-14T05:13:13.964Z,10.52
2022-08-14T05:14:46.610Z,10.52
2022-08-14T05:15:29.358Z,11.02
2022-08-14T05:16:06.825Z,11.00
2022-08-14T05:16:40.539Z,10.98
2022-08-14T05:17:12.086Z,10.52
2022-08-14T05:17:53.860Z,10.93
2022-08-14T05:19:18.938Z,10.50
2022-08-14T05:19:32.043Z,10.38
2022-08-14T05:21:55.938Z,10.65
2022-08-14T05:21:57.671Z,11.75
2022-08-14T05:21:59.334Z,11.05
2022-08-14T05:22:32.218Z,10.93
2022-08-14T05:23:03.710Z,12.00
2022-08-14T05:23:38.091Z,10.98
2022-08-14T05:24:17.711Z,11.82
2022-08-14T05:25:39.051Z,11.63
2022-08-14T05:26:13.251Z,13.20
2022-08-14T05:26:46.693Z,11.13
2022-08-14T05:27:22.568Z,11.98
2022-08-14T05:27:57.325Z,12.55
2022-08-14T05:28:33.123Z,11.52
2022-08-14T05:29:05.519Z,12.33
2022-08-14T05:29:44.736Z,11.85
2022-08-14T05:31:09.173Z,11.93
2022-08-14T05:31:40.811Z,10.40
2022-08-14T05:32:13.347Z,12.68
2022-08-14T05:32:46.757Z,12.05
2022-08-14T05:34:10.548Z,11.15
2022-08-14T05:34:45.817Z,11.85
2022-08-14T05:35:19.179Z,11.93
2022-08-14T05:35:53.340Z,11.45
2022-08-14T05:36:25.657Z,11.50
2022-08-14T05:37:02.210Z,12.38
2022-08-14T05:37:34.462Z,12.52
2022-08-14T05:38:30.645Z,11.65
2022-08-14T05:39:04.710Z,11.07
2022-08-14T05:39:41.199Z,11.75
2022-08-14T05:40:12.828Z,11.52
2022-08-14T05:40:44.877Z,12.10
2022-08-14T05:41:18.660Z,11.77
2022-08-14T05:41:53.905Z,13.13
2022-08-14T05:42:29.002Z,11.38
2022-08-14T05:43:03.171Z,12.93
2022-08-14T05:43:41.321Z,11.32
2022-08-14T05:44:13.178Z,12.23
2022-08-14T05:44:46.060Z,11.93
2022-08-14T05:45:18.972Z,12.07
2022-08-14T05:45:50.379Z,12.27
2022-08-14T05:46:24.572Z,11.88
2022-08-14T05:46:55.909Z,12.27
2022-08-14T05:47:33.734Z,11.43
2022-08-14T05:48:14.504Z,12.35
2022-08-14T05:49:05.438Z,12.15
2022-08-14T05:49:40.470Z,11.77
2022-08-14T05:50:17.216Z,11.18
2022-08-14T05:50:52.389Z,11.90
2022-08-14T05:51:26.847Z,11.75
2022-08-14T05:51:58.462Z,11.82
2022-08-14T05:52:39.296Z,11.32
2022-08-14T05:53:11.287Z,10.70
2022-08-14T05:53:43.627Z,11.82
2022-08-14T05:54:35.728Z,11.93
2022-08-14T05:55:10.060Z,11.50
2022-08-14T05:55:44.326Z,13.52
2022-08-14T05:56:16.417Z,11.90
2022-08-14T05:56:47.911Z,12.25
2022-08-14T05:57:19.698Z,12.32
2022-08-14T05:57:57.865Z,12.35
2022-08-14T05:58:41.061Z,10.95
2022-08-14T05:59:13.056Z,11.77
2022-08-14T05:59:48.038Z,11.20
2022-08-14T06:00:24.395Z,12.65
2022-08-14T06:00:59.827Z,13.45
2022-08-14T06:01:31.516Z,12.35
2022-08-14T06:02:03.501Z,12.30
2022-08-14T06:02:37.276Z,11.90
2022-08-14T06:03:12.312Z,12.07
2022-08-14T06:03:43.656Z,13.00
2022-08-14T06:04:15.754Z,11.88
2022-08-14T06:04:48.130Z,13.03
2022-08-14T06:05:23.229Z,12.73
2022-08-14T06:05:55.999Z,12.43
2022-08-14T06:06:27.675Z,12.25
2022-08-14T06:06:59.063Z,12.45
2022-08-14T06:07:30.405Z,12.60
2022-08-14T06:08:02.389Z,11.45
2022-08-14T06:08:41.679Z,12.25
2022-08-14T06:09:13.520Z,12.50
2022-08-14T06:09:50.969Z,12.52
2022-08-14T06:10:24.013Z,11.70
2022-08-14T06:11:05.570Z,12.07
2022-08-14T06:11:37.300Z,12.77
2022-08-14T06:12:09.231Z,12.63
2022-08-14T06:13:03.266Z,12.00
2022-08-14T06:13:45.385Z,12.88
2022-08-14T06:14:21.254Z,12.20
2022-08-14T06:14:55.285Z,12.40
2022-08-14T06:15:30.042Z,12.95
2022-08-14T06:16:20.866Z,12.70
2022-08-14T06:16:53.301Z,12.67
2022-08-14T06:17:25.755Z,11.80
2022-08-14T06:17:59.089Z,12.13
2022-08-14T06:18:52.670Z,12.57
2022-08-14T06:19:24.499Z,11.35
2022-08-14T06:19:56.235Z,11.88
2022-08-14T06:20:28.787Z,13.00
2022-08-14T06:21:02.845Z,12.02
2022-08-14T06:21:34.204Z,12.85
2022-08-14T06:22:06.515Z,12.35
2022-08-14T06:22:41.855Z,12.87
2022-08-14T06:23:13.317Z,12.90
2022-08-14T06:23:48.770Z,12.38
2022-08-14T06:24:20.660Z,11.75
2022-08-14T06:24:51.997Z,13.30
2022-08-14T06:25:23.767Z,12.57
2022-08-14T06:25:56.744Z,12.85
2022-08-14T06:26:30.325Z,12.85
2022-08-14T06:27:06.204Z,12.50
2022-08-14T06:28:33.434Z,11.97
2022-08-14T06:29:54.798Z,13.75
2022-08-14T06:30:30.137Z,12.85
2022-08-14T06:31:13.651Z,13.30
2022-08-14T06:31:45.493Z,12.75
2022-08-14T06:32:36.653Z,13.55
2022-08-14T06:33:19.313Z,12.52
2022-08-14T06:35:03.922Z,12.73
2022-08-14T06:35:04.645Z,12.68
2022-08-14T06:35:36.555Z,13.13
2022-08-14T06:36:08.522Z,12.23
2022-08-14T06:36:42.860Z,12.20
2022-08-14T06:37:18.650Z,13.93
2022-08-14T06:37:52.875Z,13.57
2022-08-14T06:38:25.066Z,12.40
2022-08-14T06:38:56.577Z,13.90
2022-08-14T06:39:36.968Z,14.25
2022-08-14T06:40:25.696Z,13.32
2022-08-14T06:40:59.511Z,13.38
2022-08-14T06:41:57.269Z,11.87
2022-08-14T06:42:32.409Z,12.95
2022-08-14T06:43:07.149Z,12.70
2022-08-14T06:43:38.575Z,12.93
2022-08-14T06:44:16.839Z,12.93
2022-08-14T06:44:48.173Z,13.18
2022-08-14T06:45:20.224Z,13.27
2022-08-14T06:45:53.895Z,13.20
2022-08-14T06:46:34.079Z,13.35
2022-08-14T06:47:27.218Z,13.55
2022-08-14T06:47:59.327Z,13.13
2022-08-14T06:48:31.032Z,12.60
2022-08-14T06:49:04.136Z,12.65
2022-08-14T06:49:40.561Z,12.98
2022-08-14T06:50:19.254Z,12.57
2022-08-14T06:50:53.107Z,13.20
2022-08-14T06:51:24.645Z,12.18
2022-08-14T06:52:10.460Z,12.63
2022-08-14T06:52:49.990Z,13.68
2022-08-14T06:53:28.207Z,12.30
2022-08-14T06:54:00.783Z,13.37
2022-08-14T06:54:32.339Z,11.95
2022-08-14T06:55:07.497Z,12.15
2022-08-14T06:55:40.774Z,11.30
2022-08-14T06:56:29.975Z,11.93
2022-08-14T06:57:01.311Z,12.48
2022-08-14T06:57:38.640Z,12.07
2022-08-14T06:58:20.705Z,12.70
2022-08-14T06:59:00.367Z,11.07
2022-08-14T06:59:33.707Z,11.57
2022-08-14T07:00:31.207Z,12.23
2022-08-14T07:01:27.530Z,12.63
2022-08-14T07:03:44.598Z,11.82
2022-08-14T07:04:34.350Z,11.77
2022-08-14T07:05:26.335Z,11.05
2022-08-14T07:05:58.735Z,11.57
2022-08-14T07:06:46.606Z,12.20
2022-08-14T07:07:19.248Z,12.40
2022-08-14T07:07:51.459Z,12.25
2022-08-14T07:08:26.434Z,11.93
2022-08-14T07:09:01.529Z,10.93
2022-08-14T07:09:43.700Z,12.00
2022-08-14T07:10:22.189Z,11.02
2022-08-14T07:10:59.952Z,12.93
2022-08-14T07:11:32.109Z,10.65
2022-08-14T07:12:06.552Z,11.75
2022-08-14T07:13:01.032Z,12.02
2022-08-14T07:13:31.093Z,12.02
2022-08-14T07:14:21.008Z,11.77
2022-08-14T07:14:56.917Z,11.70
2022-08-14T07:15:33.835Z,11.73
2022-08-14T07:16:05.979Z,11.05
2022-08-14T07:16:37.947Z,10.52
2022-08-14T07:17:09.288Z,11.95
2022-08-14T07:17:45.635Z,11.02
2022-08-14T07:18:22.103Z,10.98
2022-08-14T07:18:53.965Z,11.48
2022-08-14T07:19:25.321Z,10.45
2022-08-14T07:20:00.710Z,10.98
2022-08-14T07:20:32.765Z,11.13
2022-08-14T07:21:06.014Z,11.13
2022-08-14T07:21:39.813Z,10.80
2022-08-14T07:22:20.231Z,12.00
2022-08-14T07:22:57.130Z,11.10
2022-08-14T07:23:31.390Z,10.68
2022-08-14T07:24:03.869Z,9.93
2022-08-14T07:24:35.224Z,10.65
2022-08-14T07:25:07.551Z,11.05
2022-08-14T07:25:42.271Z,10.32
2022-08-14T07:26:34.160Z,11.00
2022-08-14T07:27:05.620Z,11.43
2022-08-14T07:27:42.901Z,11.55
2022-08-14T07:28:20.745Z,11.68
2022-08-14T07:28:52.765Z,9.77
2022-08-14T07:29:28.700Z,10.43
2022-08-14T07:30:03.641Z,9.38
2022-08-14T07:30:35.962Z,10.88
2022-08-14T07:31:13.467Z,10.70
2022-08-14T07:31:47.784Z,9.52
2022-08-14T07:32:22.147Z,10.03
2022-08-14T07:33:05.625Z,10.05
2022-08-14T07:33:41.922Z,10.18
2022-08-14T07:34:13.471Z,9.95
2022-08-14T07:35:05.183Z,10.80
2022-08-14T07:36:30.620Z,9.80
2022-08-14T07:37:02.619Z,10.02
2022-08-14T07:37:34.007Z,10.15
2022-08-14T07:38:06.217Z,9.23
2022-08-14T07:38:43.348Z,9.70
2022-08-14T07:39:27.603Z,9.13
2022-08-14T07:39:59.380Z,9.18
2022-08-14T07:40:31.464Z,9.18
2022-08-14T07:41:14.704Z,9.10
2022-08-14T07:41:48.139Z,8.40
2022-08-14T07:42:22.794Z,8.10
2022-08-14T07:42:54.532Z,8.88
2022-08-14T07:43:28.341Z,9.30
2022-08-14T07:44:29.489Z,9.32
2022-08-14T07:44:54.700Z,9.23
2022-08-14T07:45:28.761Z,8.73
2022-08-14T07:46:04.768Z,9.05
2022-08-14T07:46:36.249Z,9.55
2022-08-14T07:47:08.109Z,9.13
2022-08-14T07:47:41.688Z,8.77
2022-08-14T07:48:14.825Z,7.90
2022-08-14T07:48:48.339Z,8.10
2022-08-14T07:49:21.554Z,8.30
2022-08-14T07:50:03.630Z,8.55
2022-08-14T07:50:37.313Z,9.10
2022-08-14T07:51:10.875Z,8.32
2022-08-14T07:51:43.005Z,8.32
2022-08-14T07:52:15.260Z,8.65
2022-08-14T07:52:53.693Z,8.10
2022-08-14T07:53:25.813Z,7.97
2022-08-14T07:53:58.335Z,8.23
2022-08-14T07:54:30.704Z,8.32
2022-08-14T07:55:02.368Z,8.48
2022-08-14T07:55:34.109Z,8.48
2022-08-14T07:56:09.191Z,8.40
2022-08-14T07:56:59.693Z,8.40
2022-08-14T07:57:31.773Z,7.85
2022-08-14T07:58:05.933Z,8.02
2022-08-14T07:58:55.185Z,8.43
2022-08-14T07:59:42.649Z,7.60
2022-08-14T08:00:30.931Z,8.30
2022-08-14T08:01:02.905Z,8.25
2022-08-14T08:01:34.636Z,8.38
2022-08-14T08:02:06.960Z,8.07
2022-08-14T08:02:55.031Z,7.80
2022-08-14T08:03:32.684Z,8.07
2022-08-14T08:04:16.755Z,7.85
2022-08-14T08:04:54.377Z,8.02
2022-08-14T08:05:26.835Z,8.15
2022-08-14T08:06:17.515Z,7.63
2022-08-14T08:06:49.631Z,7.25
2022-08-14T08:07:30.142Z,8.05
2022-08-14T08:08:03.636Z,7.93
2022-08-14T08:08:40.074Z,7.00
2022-08-14T08:09:12.300Z,8.33
2022-08-14T08:09:53.501Z,7.68
2022-08-14T08:11:02.275Z,7.75
2022-08-14T08:11:26.550Z,7.88
2022-08-14T08:12:01.610Z,7.85
2022-08-14T08:12:36.761Z,7.65
2022-08-14T08:13:15.644Z,7.35
2022-08-14T08:13:54.579Z,7.75
2022-08-14T08:14:26.864Z,7.78
2022-08-14T08:15:19.574Z,7.95
2022-08-14T08:15:56.580Z,6.53
2022-08-14T08:16:29.228Z,7.57
2022-08-14T08:17:01.590Z,7.43
2022-08-14T08:17:38.903Z,9.05
2022-08-14T08:18:27.295Z,8.48
2022-08-14T08:19:05.892Z,7.90
2022-08-14T08:19:48.140Z,7.57
2022-08-14T08:20:27.513Z,7.40
2022-08-14T08:21:00.229Z,8.07
2022-08-14T08:21:33.329Z,7.68
2022-08-14T08:22:07.149Z,7.27
2022-08-14T08:22:48.008Z,7.97
2022-08-14T08:23:43.532Z,7.55
2022-08-14T08:24:23.192Z,7.43
2022-08-14T08:24:54.727Z,7.57
2022-08-14T08:25:33.990Z,6.72
2022-08-14T08:26:11.719Z,7.13
2022-08-14T08:26:43.060Z,7.22
2022-08-14T08:27:19.781Z,7.60
2022-08-14T08:28:00.167Z,7.90
2022-08-14T08:28:31.586Z,6.90
2022-08-14T08:29:06.291Z,7.18
2022-08-14T08:29:38.283Z,7.53
2022-08-14T08:30:14.385Z,7.53
2022-08-14T08:30:57.738Z,7.35
2022-08-14T08:31:34.871Z,7.43
2022-08-14T08:32:06.771Z,6.80
2022-08-14T08:32:45.774Z,7.05
2022-08-14T08:33:19.148Z,6.93
2022-08-14T08:33:54.065Z,7.38
2022-08-14T08:34:26.132Z,7.50
2022-08-14T08:34:58.040Z,7.10
2022-08-14T08:35:46.672Z,7.60
2022-08-14T08:36:21.788Z,7.50
2022-08-14T08:36:53.633Z,6.70
2022-08-14T08:37:30.728Z,6.30
2022-08-14T08:39:18.383Z,6.80
2022-08-14T08:39:18.490Z,6.85
2022-08-14T08:40:02.697Z,7.15
2022-08-14T08:40:42.325Z,6.38
2022-08-14T08:41:14.217Z,5.97
2022-08-14T08:41:49.495Z,6.60
2022-08-14T08:42:31.623Z,6.85
2022-08-14T08:43:33.770Z,6.30
2022-08-14T08:44:17.385Z,7.60
2022-08-14T08:45:00.695Z,7.28
2022-08-14T08:45:34.909Z,7.15